sensor_id;sensor_type;location;lat;lon;timestamp;pressure;altitude;pressure_sealevel;temperature;humidity
44103;BME280;29769;42.178;24.742;2024-03-22T00:01:30;99851.88;;;3.70;100.00
44103;BME280;29769;42.178;24.742;2024-03-22T00:04:14;99867.56;;;3.78;100.00
44103;BME280;29769;42.178;24.742;2024-03-22T00:06:59;99864.31;;;3.92;100.00
44103;BME280;29769;42.178;24.742;2024-03-22T00:09:43;99874.81;;;4.00;100.00
44103;BME280;29769;42.178;24.742;2024-03-22T00:12:28;99872.34;;;4.08;100.00
44103;BME280;29769;42.178;24.742;2024-03-22T00:15:12;99874.03;;;4.04;100.00
44103;BME280;29769;42.178;24.742;2024-03-22T00:17:56;99872.94;;;3.88;100.00
44103;BME280;29769;42.178;24.742;2024-03-22T00:20:41;99867.38;;;3.63;100.00
44103;BME280;29769;42.178;24.742;2024-03-22T00:23:25;99872.44;;;3.53;100.00
44103;BME280;29769;42.178;24.742;2024-03-22T00:26:10;99865.44;;;3.49;100.00
44103;BME280;29769;42.178;24.742;2024-03-22T00:28:54;99863.78;;;3.56;100.00
44103;BME280;29769;42.178;24.742;2024-03-22T00:31:39;99867.38;;;3.63;100.00
44103;BME280;29769;42.178;24.742;2024-03-22T00:34:23;99872.56;;;3.64;100.00
44103;BME280;29769;42.178;24.742;2024-03-22T00:37:08;99861.22;;;3.57;100.00
44103;BME280;29769;42.178;24.742;2024-03-22T00:39:52;99865.50;;;3.54;100.00
44103;BME280;29769;42.178;24.742;2024-03-22T00:42:37;99871.47;;;3.50;100.00
44103;BME280;29769;42.178;24.742;2024-03-22T00:45:21;99870.63;;;3.51;100.00
44103;BME280;29769;42.178;24.742;2024-03-22T00:48:06;99872.44;;;3.53;100.00
44103;BME280;29769;42.178;24.742;2024-03-22T00:50:51;99867.22;;;3.53;100.00
44103;BME280;29769;42.178;24.742;2024-03-22T00:53:35;99868.94;;;3.54;100.00
44103;BME280;29769;42.178;24.742;2024-03-22T00:56:20;99863.72;;;3.51;100.00
44103;BME280;29769;42.178;24.742;2024-03-22T00:59:04;99860.28;;;3.52;100.00
44103;BME280;29769;42.178;24.742;2024-03-22T01:01:48;99860.28;;;3.52;100.00
44103;BME280;29769;42.178;24.742;2024-03-22T01:04:33;99857.66;;;3.52;100.00
44103;BME280;29769;42.178;24.742;2024-03-22T01:07:18;99855.91;;;3.51;100.00
44103;BME280;29769;42.178;24.742;2024-03-22T01:10:05;99866.31;;;3.51;100.00
44103;BME280;29769;42.178;24.742;2024-03-22T01:12:50;99875.97;;;3.58;100.00
44103;BME280;29769;42.178;24.742;2024-03-22T01:15:34;99874.28;;;3.64;100.00
44103;BME280;29769;42.178;24.742;2024-03-22T01:18:20;99873.50;;;3.68;100.00
44103;BME280;29769;42.178;24.742;2024-03-22T01:21:04;99874.50;;;3.76;100.00
44103;BME280;29769;42.178;24.742;2024-03-22T01:23:50;99867.50;;;3.73;100.00
44103;BME280;29769;42.178;24.742;2024-03-22T01:26:34;99871.03;;;3.75;100.00
44103;BME280;29769;42.178;24.742;2024-03-22T01:29:19;99869.25;;;3.74;100.00
44103;BME280;29769;42.178;24.742;2024-03-22T01:32:03;99874.47;;;3.74;100.00
44103;BME280;29769;42.178;24.742;2024-03-22T01:34:48;99878.06;;;3.81;100.00
44103;BME280;29769;42.178;24.742;2024-03-22T01:37:32;99876.47;;;3.92;100.00
44103;BME280;29769;42.178;24.742;2024-03-22T01:40:17;99872.28;;;4.03;100.00
44103;BME280;29769;42.178;24.742;2024-03-22T01:43:02;99875.78;;;4.05;100.00
44103;BME280;29769;42.178;24.742;2024-03-22T01:45:46;99867.03;;;4.00;100.00
44103;BME280;29769;42.178;24.742;2024-03-22T01:48:30;99869.56;;;3.94;100.00
44103;BME280;29769;42.178;24.742;2024-03-22T01:51:16;99862.47;;;3.84;100.00
44103;BME280;29769;42.178;24.742;2024-03-22T01:54:01;99867.56;;;3.76;100.00
44103;BME280;29769;42.178;24.742;2024-03-22T01:56:46;99870.06;;;3.70;100.00
44103;BME280;29769;42.178;24.742;2024-03-22T01:59:31;99867.47;;;3.70;100.00
44103;BME280;29769;42.178;24.742;2024-03-22T02:02:17;99868.38;;;3.72;100.00
44103;BME280;29769;42.178;24.742;2024-03-22T02:05:12;99870.06;;;3.70;100.00
44103;BME280;29769;42.178;24.742;2024-03-22T02:07:57;99858.69;;;3.64;100.00
44103;BME280;29769;42.178;24.742;2024-03-22T02:10:42;99851.59;;;3.52;100.00
44103;BME280;29769;42.178;24.742;2024-03-22T02:13:27;99862.00;;;3.52;100.00
44103;BME280;29769;42.178;24.742;2024-03-22T02:16:12;99855.97;;;3.56;100.00
44103;BME280;29769;42.178;24.742;2024-03-22T02:18:56;99863.00;;;3.62;100.00
44103;BME280;29769;42.178;24.742;2024-03-22T02:21:41;99869.09;;;3.64;100.00
44103;BME280;29769;42.178;24.742;2024-03-22T02:24:26;99863.91;;;3.65;100.00
44103;BME280;29769;42.178;24.742;2024-03-22T02:27:10;99868.25;;;3.65;100.00
44103;BME280;29769;42.178;24.742;2024-03-22T02:29:55;99875.25;;;3.69;100.00
44103;BME280;29769;42.178;24.742;2024-03-22T02:32:39;99884.00;;;3.74;100.00
44103;BME280;29769;42.178;24.742;2024-03-22T02:35:24;99892.78;;;3.80;100.00
44103;BME280;29769;42.178;24.742;2024-03-22T02:38:09;99893.75;;;3.88;100.00
44103;BME280;29769;42.178;24.742;2024-03-22T02:40:54;99892.91;;;3.89;100.00
44103;BME280;29769;42.178;24.742;2024-03-22T02:43:38;99886.66;;;3.78;100.00
44103;BME280;29769;42.178;24.742;2024-03-22T02:46:22;99882.97;;;3.64;100.00
44103;BME280;29769;42.178;24.742;2024-03-22T02:49:07;99874.19;;;3.56;100.00
44103;BME280;29769;42.178;24.742;2024-03-22T02:51:52;99883.63;;;3.49;100.00
44103;BME280;29769;42.178;24.742;2024-03-22T02:54:37;99894.03;;;3.49;100.00
44103;BME280;29769;42.178;24.742;2024-03-22T02:57:21;99889.59;;;3.44;100.00
44103;BME280;29769;42.178;24.742;2024-03-22T03:00:06;99896.63;;;3.49;100.00
44103;BME280;29769;42.178;24.742;2024-03-22T03:02:51;99893.22;;;3.53;100.00
44103;BME280;29769;42.178;24.742;2024-03-22T03:05:35;99897.63;;;3.59;100.00
44103;BME280;29769;42.178;24.742;2024-03-22T03:08:20;99906.50;;;3.70;100.00
44103;BME280;29769;42.178;24.742;2024-03-22T03:11:04;99907.53;;;3.83;100.00
44103;BME280;29769;42.178;24.742;2024-03-22T03:13:48;99907.72;;;3.93;100.00
44103;BME280;29769;42.178;24.742;2024-03-22T03:16:33;99908.66;;;4.00;100.00
44103;BME280;29769;42.178;24.742;2024-03-22T03:19:17;99910.56;;;4.10;100.00
44103;BME280;29769;42.178;24.742;2024-03-22T03:22:02;99870.44;;;3.94;100.00
44103;BME280;29769;42.178;24.742;2024-03-22T03:24:46;99918.56;;;4.22;100.00
44103;BME280;29769;42.178;24.742;2024-03-22T03:27:31;99917.66;;;4.23;100.00
44103;BME280;29769;42.178;24.742;2024-03-22T03:30:16;99924.47;;;4.14;100.00
44103;BME280;29769;42.178;24.742;2024-03-22T03:33:00;99920.69;;;3.92;100.00
44103;BME280;29769;42.178;24.742;2024-03-22T03:35:45;99917.78;;;3.71;100.00
44103;BME280;29769;42.178;24.742;2024-03-22T03:38:30;99927.97;;;3.57;100.00
44103;BME280;29769;42.178;24.742;2024-03-22T03:41:15;99926.09;;;3.48;100.00
44103;BME280;29769;42.178;24.742;2024-03-22T03:43:59;99928.69;;;3.48;100.00
44103;BME280;29769;42.178;24.742;2024-03-22T03:46:44;99932.25;;;3.55;100.00
44103;BME280;29769;42.178;24.742;2024-03-22T03:49:28;99934.84;;;3.55;100.00
44103;BME280;29769;42.178;24.742;2024-03-22T03:52:13;99942.72;;;3.58;100.00
44103;BME280;29769;42.178;24.742;2024-03-22T03:54:58;99942.66;;;3.53;100.00
44103;BME280;29769;42.178;24.742;2024-03-22T03:57:42;99942.19;;;3.26;100.00
44103;BME280;29769;42.178;24.742;2024-03-22T04:00:27;99942.72;;;3.10;100.00
44103;BME280;29769;42.178;24.742;2024-03-22T04:03:11;99952.13;;;3.02;100.00
44103;BME280;29769;42.178;24.742;2024-03-22T04:05:56;99946.91;;;3.02;100.00
44103;BME280;29769;42.178;24.742;2024-03-22T04:08:40;99950.19;;;2.92;100.00
44103;BME280;29769;42.178;24.742;2024-03-22T04:11:26;99951.44;;;2.68;100.00
44103;BME280;29769;42.178;24.742;2024-03-22T04:14:10;99958.06;;;2.53;100.00
44103;BME280;29769;42.178;24.742;2024-03-22T04:16:55;99956.06;;;2.40;100.00
44103;BME280;29769;42.178;24.742;2024-03-22T04:19:40;99957.56;;;2.30;100.00
44103;BME280;29769;42.178;24.742;2024-03-22T04:22:25;99970.53;;;2.30;100.00
44103;BME280;29769;42.178;24.742;2024-03-22T04:25:09;99970.75;;;2.39;100.00
44103;BME280;29769;42.178;24.742;2024-03-22T04:27:53;99980.50;;;2.51;100.00
44103;BME280;29769;42.178;24.742;2024-03-22T04:30:38;99974.47;;;2.52;100.00
44103;BME280;29769;42.178;24.742;2024-03-22T04:33:22;99970.09;;;2.49;100.00
44103;BME280;29769;42.178;24.742;2024-03-22T04:36:07;99968.31;;;2.47;100.00
44103;BME280;29769;42.178;24.742;2024-03-22T04:38:53;99972.72;;;2.49;100.00
44103;BME280;29769;42.178;24.742;2024-03-22T04:41:38;99971.00;;;2.51;100.00
44103;BME280;29769;42.178;24.742;2024-03-22T04:44:22;99971.19;;;2.59;100.00
44103;BME280;29769;42.178;24.742;2024-03-22T04:47:07;99973.03;;;2.66;100.00
44103;BME280;29769;42.178;24.742;2024-03-22T04:49:52;99980.09;;;2.72;100.00
44103;BME280;29769;42.178;24.742;2024-03-22T04:52:36;99986.38;;;2.83;100.00
44103;BME280;29769;42.178;24.742;2024-03-22T04:55:21;99984.88;;;2.94;100.00
44103;BME280;29769;42.178;24.742;2024-03-22T04:58:05;99977.22;;;3.01;100.00
44103;BME280;29769;42.178;24.742;2024-03-22T05:00:55;99970.34;;;3.05;100.00
44103;BME280;29769;42.178;24.742;2024-03-22T05:03:40;99968.63;;;3.04;100.00
44103;BME280;29769;42.178;24.742;2024-03-22T05:06:25;99974.72;;;3.06;100.00
44103;BME280;29769;42.178;24.742;2024-03-22T05:09:10;99972.78;;;2.96;100.00
44103;BME280;29769;42.178;24.742;2024-03-22T05:11:55;99973.16;;;3.16;100.00
44103;BME280;29769;42.178;24.742;2024-03-22T05:14:39;99971.91;;;3.42;100.00
44103;BME280;29769;42.178;24.742;2024-03-22T05:17:24;99987.91;;;3.63;100.00
44103;BME280;29769;42.178;24.742;2024-03-22T05:20:08;99993.78;;;4.06;100.00
44103;BME280;29769;42.178;24.742;2024-03-22T05:22:55;100000.63;;;4.58;100.00
44103;BME280;29769;42.178;24.742;2024-03-22T05:25:39;100012.56;;;5.07;100.00
44103;BME280;29769;42.178;24.742;2024-03-22T05:28:24;100012.94;;;5.42;100.00
44103;BME280;29769;42.178;24.742;2024-03-22T05:31:09;100024.22;;;5.41;100.00
44103;BME280;29769;42.178;24.742;2024-03-22T05:33:53;100022.72;;;5.62;100.00
44103;BME280;29769;42.178;24.742;2024-03-22T05:36:38;100020.56;;;6.11;100.00
44103;BME280;29769;42.178;24.742;2024-03-22T05:39:22;100025.28;;;6.68;100.00
44103;BME280;29769;42.178;24.742;2024-03-22T05:42:07;100029.03;;;7.17;100.00
44103;BME280;29769;42.178;24.742;2024-03-22T05:44:52;100032.66;;;7.66;100.00
44103;BME280;29769;42.178;24.742;2024-03-22T05:47:37;100041.38;;;7.62;100.00
44103;BME280;29769;42.178;24.742;2024-03-22T05:50:22;100050.16;;;7.94;100.00
44103;BME280;29769;42.178;24.742;2024-03-22T05:53:06;100044.94;;;8.37;100.00
44103;BME280;29769;42.178;24.742;2024-03-22T05:55:51;100054.50;;;8.80;99.84
44103;BME280;29769;42.178;24.742;2024-03-22T05:58:35;100047.34;;;9.25;94.31
44103;BME280;29769;42.178;24.742;2024-03-22T06:01:20;100048.72;;;9.94;88.99
44103;BME280;29769;42.178;24.742;2024-03-22T06:04:05;100050.84;;;10.58;83.59
44103;BME280;29769;42.178;24.742;2024-03-22T06:06:49;100047.50;;;11.19;79.71
44103;BME280;29769;42.178;24.742;2024-03-22T06:09:34;100034.97;;;12.01;72.78
44103;BME280;29769;42.178;24.742;2024-03-22T06:12:21;100039.75;;;12.32;66.50
44103;BME280;29769;42.178;24.742;2024-03-22T06:15:06;100039.53;;;12.91;65.40
44103;BME280;29769;42.178;24.742;2024-03-22T06:17:51;100042.47;;;13.22;59.48
44103;BME280;29769;42.178;24.742;2024-03-22T06:20:35;100040.84;;;12.71;59.82
44103;BME280;29769;42.178;24.742;2024-03-22T06:23:20;100044.88;;;11.19;66.33
44103;BME280;29769;42.178;24.742;2024-03-22T06:26:05;100039.75;;;11.08;71.48
44103;BME280;29769;42.178;24.742;2024-03-22T06:28:50;100035.28;;;11.13;72.75
44103;BME280;29769;42.178;24.742;2024-03-22T06:31:34;100038.72;;;11.20;72.46
44103;BME280;29769;42.178;24.742;2024-03-22T06:34:18;100036.16;;;11.17;72.98
44103;BME280;29769;42.178;24.742;2024-03-22T06:37:04;100032.31;;;11.40;71.78
44103;BME280;29769;42.178;24.742;2024-03-22T06:39:48;100034.41;;;11.17;72.77
44103;BME280;29769;42.178;24.742;2024-03-22T06:42:33;100030.94;;;11.10;75.21
44103;BME280;29769;42.178;24.742;2024-03-22T06:45:17;100025.50;;;11.26;72.39
44103;BME280;29769;42.178;24.742;2024-03-22T06:48:02;100028.03;;;11.33;70.70
44103;BME280;29769;42.178;24.742;2024-03-22T06:50:47;100031.47;;;11.37;71.07
44103;BME280;29769;42.178;24.742;2024-03-22T06:53:31;100036.69;;;11.43;70.79
44103;BME280;29769;42.178;24.742;2024-03-22T06:56:16;100030.22;;;11.67;71.19
44103;BME280;29769;42.178;24.742;2024-03-22T06:59:00;100028.91;;;11.95;67.94
44103;BME280;29769;42.178;24.742;2024-03-22T07:01:46;100034.09;;;12.02;67.53
44103;BME280;29769;42.178;24.742;2024-03-22T07:04:30;100032.06;;;12.69;66.19
44103;BME280;29769;42.178;24.742;2024-03-22T07:07:14;100023.91;;;13.67;61.12
44103;BME280;29769;42.178;24.742;2024-03-22T07:09:59;100030.69;;;14.52;57.10
44103;BME280;29769;42.178;24.742;2024-03-22T07:12:43;100023.03;;;15.67;54.30
44103;BME280;29769;42.178;24.742;2024-03-22T07:15:28;100021.63;;;16.11;49.14
44103;BME280;29769;42.178;24.742;2024-03-22T07:18:14;100022.66;;;14.54;51.43
44103;BME280;29769;42.178;24.742;2024-03-22T07:20:58;100026.44;;;14.78;52.14
44103;BME280;29769;42.178;24.742;2024-03-22T07:23:45;100031.19;;;14.66;51.89
44103;BME280;29769;42.178;24.742;2024-03-22T07:26:30;100022.78;;;14.83;51.77
44103;BME280;29769;42.178;24.742;2024-03-22T07:29:15;100008.06;;;15.64;50.82
44103;BME280;29769;42.178;24.742;2024-03-22T07:32:00;100026.19;;;16.60;47.94
44103;BME280;29769;42.178;24.742;2024-03-22T07:34:45;100024.63;;;17.27;45.73
44103;BME280;29769;42.178;24.742;2024-03-22T07:37:30;100021.75;;;17.33;44.54
44103;BME280;29769;42.178;24.742;2024-03-22T07:40:15;100022.38;;;17.86;43.02
44103;BME280;29769;42.178;24.742;2024-03-22T07:43:00;99997.78;;;18.23;42.19
44103;BME280;29769;42.178;24.742;2024-03-22T07:45:50;100014.25;;;19.34;40.86
44103;BME280;29769;42.178;24.742;2024-03-22T07:48:34;100019.53;;;19.54;39.44
44103;BME280;29769;42.178;24.742;2024-03-22T07:51:22;100015.19;;;19.53;39.75
44103;BME280;29769;42.178;24.742;2024-03-22T07:54:06;100004.91;;;19.63;38.49
44103;BME280;29769;42.178;24.742;2024-03-22T07:56:51;100005.69;;;20.02;38.19
44103;BME280;29769;42.178;24.742;2024-03-22T07:59:35;100004.34;;;21.80;35.68
44103;BME280;29769;42.178;24.742;2024-03-22T08:02:20;100001.41;;;22.61;34.48
44103;BME280;29769;42.178;24.742;2024-03-22T08:05:04;99998.88;;;21.81;35.11
44103;BME280;29769;42.178;24.742;2024-03-22T08:07:49;100005.03;;;22.60;33.15
44103;BME280;29769;42.178;24.742;2024-03-22T08:10:34;100003.44;;;23.16;32.17
44103;BME280;29769;42.178;24.742;2024-03-22T08:13:18;99992.72;;;23.99;31.17
44103;BME280;29769;42.178;24.742;2024-03-22T08:16:03;99995.31;;;24.94;29.74
44103;BME280;29769;42.178;24.742;2024-03-22T08:18:48;99995.63;;;24.50;29.99
44103;BME280;29769;42.178;24.742;2024-03-22T08:21:32;100000.38;;;24.19;30.62
44103;BME280;29769;42.178;24.742;2024-03-22T08:24:18;99989.78;;;25.46;28.83
44103;BME280;29769;42.178;24.742;2024-03-22T08:27:03;99989.19;;;26.15;28.01
44103;BME280;29769;42.178;24.742;2024-03-22T08:29:48;99992.53;;;27.79;26.72
44103;BME280;29769;42.178;24.742;2024-03-22T08:32:32;99993.81;;;28.82;25.08
44103;BME280;29769;42.178;24.742;2024-03-22T08:35:17;100002.63;;;26.51;26.01
44103;BME280;29769;42.178;24.742;2024-03-22T08:38:01;99992.59;;;26.30;26.59
44103;BME280;29769;42.178;24.742;2024-03-22T08:40:46;99988.72;;;25.23;27.19
44103;BME280;29769;42.178;24.742;2024-03-22T08:43:31;99995.13;;;24.30;28.01
44103;BME280;29769;42.178;24.742;2024-03-22T08:46:15;99994.81;;;24.35;28.62
44103;BME280;29769;42.178;24.742;2024-03-22T08:48:59;99989.03;;;25.44;26.85
44103;BME280;29769;42.178;24.742;2024-03-22T08:51:44;99993.25;;;25.60;25.67
44103;BME280;29769;42.178;24.742;2024-03-22T08:54:30;99987.56;;;25.02;26.47
44103;BME280;29769;42.178;24.742;2024-03-22T08:57:14;99986.94;;;23.36;28.06
44103;BME280;29769;42.178;24.742;2024-03-22T08:59:59;99983.06;;;22.39;29.03
44103;BME280;29769;42.178;24.742;2024-03-22T09:02:43;99979.19;;;22.89;28.84
44103;BME280;29769;42.178;24.742;2024-03-22T09:05:28;99977.31;;;21.84;29.61
44103;BME280;29769;42.178;24.742;2024-03-22T09:08:13;99985.22;;;23.07;28.09
44103;BME280;29769;42.178;24.742;2024-03-22T09:10:58;99984.13;;;22.51;28.19
44103;BME280;29769;42.178;24.742;2024-03-22T09:13:42;99970.28;;;23.86;26.13
44103;BME280;29769;42.178;24.742;2024-03-22T09:16:27;99977.63;;;24.11;25.83
44103;BME280;29769;42.178;24.742;2024-03-22T09:19:11;99972.88;;;25.93;24.97
44103;BME280;29769;42.178;24.742;2024-03-22T09:21:56;99972.25;;;26.72;23.45
44103;BME280;29769;42.178;24.742;2024-03-22T09:24:41;99969.84;;;28.13;21.16
44103;BME280;29769;42.178;24.742;2024-03-22T09:27:25;99963.84;;;28.73;21.67
44103;BME280;29769;42.178;24.742;2024-03-22T09:30:10;99965.63;;;29.35;21.18
44103;BME280;29769;42.178;24.742;2024-03-22T09:32:55;99964.75;;;30.15;19.52
44103;BME280;29769;42.178;24.742;2024-03-22T09:35:39;99955.91;;;30.80;19.27
44103;BME280;29769;42.178;24.742;2024-03-22T09:38:24;99951.81;;;31.87;18.20
44103;BME280;29769;42.178;24.742;2024-03-22T09:41:09;99956.81;;;32.97;17.27
44103;BME280;29769;42.178;24.742;2024-03-22T09:43:54;99951.63;;;33.72;17.27
44103;BME280;29769;42.178;24.742;2024-03-22T09:46:40;99953.84;;;33.68;15.79
44103;BME280;29769;42.178;24.742;2024-03-22T09:49:26;99954.53;;;34.36;15.96
44103;BME280;29769;42.178;24.742;2024-03-22T09:52:15;99955.72;;;33.76;16.09
44103;BME280;29769;42.178;24.742;2024-03-22T09:55:00;99947.38;;;34.27;15.76
44103;BME280;29769;42.178;24.742;2024-03-22T09:57:46;99951.88;;;33.53;15.38
44103;BME280;29769;42.178;24.742;2024-03-22T10:00:31;99944.47;;;32.50;16.64
44103;BME280;29769;42.178;24.742;2024-03-22T10:03:16;99940.66;;;30.50;17.90
44103;BME280;29769;42.178;24.742;2024-03-22T10:06:01;99940.78;;;30.20;18.00
44103;BME280;29769;42.178;24.742;2024-03-22T10:08:45;99940.94;;;32.04;17.08
44103;BME280;29769;42.178;24.742;2024-03-22T10:11:30;99929.19;;;32.92;16.50
44103;BME280;29769;42.178;24.742;2024-03-22T10:14:15;99931.22;;;33.84;15.33
44103;BME280;29769;42.178;24.742;2024-03-22T10:17:00;99929.63;;;32.80;15.74
44103;BME280;29769;42.178;24.742;2024-03-22T10:19:44;99934.03;;;31.38;16.04
44103;BME280;29769;42.178;24.742;2024-03-22T10:22:28;99923.56;;;31.06;15.94
44103;BME280;29769;42.178;24.742;2024-03-22T10:25:13;99916.81;;;31.10;15.99
44103;BME280;29769;42.178;24.742;2024-03-22T10:27:58;99912.44;;;32.44;14.96
44103;BME280;29769;42.178;24.742;2024-03-22T10:30:44;99910.19;;;32.39;15.08
44103;BME280;29769;42.178;24.742;2024-03-22T10:33:28;99905.88;;;30.73;16.21
44103;BME280;29769;42.178;24.742;2024-03-22T10:36:13;99901.41;;;32.10;14.88
44103;BME280;29769;42.178;24.742;2024-03-22T10:38:58;99890.88;;;33.20;13.97
44103;BME280;29769;42.178;24.742;2024-03-22T10:41:43;99893.31;;;31.55;15.89
44103;BME280;29769;42.178;24.742;2024-03-22T10:44:28;99889.44;;;32.20;14.96
44103;BME280;29769;42.178;24.742;2024-03-22T10:47:13;99879.69;;;32.36;14.87
44103;BME280;29769;42.178;24.742;2024-03-22T10:52:50;99880.00;;;30.78;15.69
44103;BME280;29769;42.178;24.742;2024-03-22T10:55:38;99870.75;;;31.90;14.93
44103;BME280;29769;42.178;24.742;2024-03-22T10:58:23;99866.84;;;33.57;14.19
44103;BME280;29769;42.178;24.742;2024-03-22T11:01:21;99859.94;;;33.87;13.85
44103;BME280;29769;42.178;24.742;2024-03-22T11:04:06;99860.47;;;34.55;13.71
44103;BME280;29769;42.178;24.742;2024-03-22T11:06:56;99857.69;;;32.73;14.74
44103;BME280;29769;42.178;24.742;2024-03-22T11:09:42;99848.28;;;33.19;14.02
44103;BME280;29769;42.178;24.742;2024-03-22T11:12:37;99845.50;;;32.59;14.16
44103;BME280;29769;42.178;24.742;2024-03-22T11:15:22;99842.75;;;30.71;15.29
44103;BME280;29769;42.178;24.742;2024-03-22T11:18:07;99847.25;;;31.71;15.26
44103;BME280;29769;42.178;24.742;2024-03-22T11:20:51;99833.88;;;33.08;14.70
44103;BME280;29769;42.178;24.742;2024-03-22T11:23:36;99832.81;;;33.35;14.67
44103;BME280;29769;42.178;24.742;2024-03-22T11:26:21;99840.47;;;33.82;13.91
44103;BME280;29769;42.178;24.742;2024-03-22T11:29:05;99837.44;;;34.09;13.43
44103;BME280;29769;42.178;24.742;2024-03-22T11:31:50;99833.16;;;34.39;12.79
44103;BME280;29769;42.178;24.742;2024-03-22T11:34:35;99828.91;;;33.88;13.91
44103;BME280;29769;42.178;24.742;2024-03-22T11:37:20;99822.31;;;35.02;13.16
44103;BME280;29769;42.178;24.742;2024-03-22T11:40:05;99823.25;;;35.25;12.74
44103;BME280;29769;42.178;24.742;2024-03-22T11:42:51;99825.50;;;34.34;13.37
44103;BME280;29769;42.178;24.742;2024-03-22T11:45:36;99819.38;;;31.24;14.77
44103;BME280;29769;42.178;24.742;2024-03-22T11:48:21;99814.03;;;29.34;16.28
44103;BME280;29769;42.178;24.742;2024-03-22T11:51:10;99814.34;;;31.47;14.88
44103;BME280;29769;42.178;24.742;2024-03-22T11:53:55;99809.78;;;32.88;14.83
44103;BME280;29769;42.178;24.742;2024-03-22T11:56:40;99804.84;;;31.78;14.52
44103;BME280;29769;42.178;24.742;2024-03-22T11:59:25;99796.50;;;30.80;15.28
44103;BME280;29769;42.178;24.742;2024-03-22T12:02:10;99800.75;;;31.47;14.67
44103;BME280;29769;42.178;24.742;2024-03-22T12:04:54;99787.09;;;33.79;14.06
44103;BME280;29769;42.178;24.742;2024-03-22T12:07:39;99794.03;;;34.71;13.59
44103;BME280;29769;42.178;24.742;2024-03-22T12:10:25;99787.44;;;34.33;13.68
44103;BME280;29769;42.178;24.742;2024-03-22T12:13:09;99783.81;;;34.57;13.45
44103;BME280;29769;42.178;24.742;2024-03-22T12:15:54;99786.50;;;34.81;13.09
44103;BME280;29769;42.178;24.742;2024-03-22T12:18:38;99778.75;;;34.29;13.32
44103;BME280;29769;42.178;24.742;2024-03-22T12:21:23;99777.22;;;34.27;13.72
44103;BME280;29769;42.178;24.742;2024-03-22T12:24:08;99775.50;;;34.26;13.63
44103;BME280;29769;42.178;24.742;2024-03-22T12:26:53;99780.91;;;34.58;13.28
44103;BME280;29769;42.178;24.742;2024-03-22T12:29:38;99767.41;;;34.65;13.28
44103;BME280;29769;42.178;24.742;2024-03-22T12:32:23;99765.69;;;34.72;13.37
44103;BME280;29769;42.178;24.742;2024-03-22T12:35:07;99766.91;;;35.08;12.84
44103;BME280;29769;42.178;24.742;2024-03-22T12:37:52;99764.75;;;35.88;12.47
44103;BME280;29769;42.178;24.742;2024-03-22T12:40:37;99760.31;;;35.34;12.54
44103;BME280;29769;42.178;24.742;2024-03-22T12:43:22;99753.97;;;32.40;13.92
44103;BME280;29769;42.178;24.742;2024-03-22T12:46:06;99745.34;;;32.19;14.44
44103;BME280;29769;42.178;24.742;2024-03-22T12:48:51;99742.31;;;33.32;13.62
44103;BME280;29769;42.178;24.742;2024-03-22T12:51:36;99737.34;;;32.77;13.96
44103;BME280;29769;42.178;24.742;2024-03-22T12:54:22;99742.72;;;33.61;13.75
44103;BME280;29769;42.178;24.742;2024-03-22T12:57:07;99745.22;;;33.30;14.21
44103;BME280;29769;42.178;24.742;2024-03-22T12:59:52;99734.84;;;33.58;14.20
44103;BME280;29769;42.178;24.742;2024-03-22T13:02:36;99732.69;;;33.70;13.96
44103;BME280;29769;42.178;24.742;2024-03-22T13:05:20;99736.75;;;33.66;13.61
44103;BME280;29769;42.178;24.742;2024-03-22T13:08:05;99722.81;;;33.93;13.26
44103;BME280;29769;42.178;24.742;2024-03-22T13:10:50;99720.59;;;33.72;13.96
44103;BME280;29769;42.178;24.742;2024-03-22T13:13:35;99717.84;;;33.48;13.91
44103;BME280;29769;42.178;24.742;2024-03-22T13:16:20;99719.69;;;33.64;13.46
44103;BME280;29769;42.178;24.742;2024-03-22T13:19:04;99707.22;;;33.29;13.88
44103;BME280;29769;42.178;24.742;2024-03-22T13:21:49;99717.44;;;31.56;15.26
44103;BME280;29769;42.178;24.742;2024-03-22T13:24:35;99708.19;;;32.10;15.06
44103;BME280;29769;42.178;24.742;2024-03-22T13:27:19;99702.28;;;32.14;15.12
44103;BME280;29769;42.178;24.742;2024-03-22T13:30:07;99707.38;;;32.17;15.52
44103;BME280;29769;42.178;24.742;2024-03-22T13:32:56;99702.19;;;31.63;15.36
44103;BME280;29769;42.178;24.742;2024-03-22T13:35:41;99702.78;;;31.39;15.83
44103;BME280;29769;42.178;24.742;2024-03-22T13:38:25;99708.50;;;31.63;15.35
44103;BME280;29769;42.178;24.742;2024-03-22T13:41:10;99697.44;;;32.08;15.40
44103;BME280;29769;42.178;24.742;2024-03-22T13:43:55;99696.13;;;31.33;15.19
44103;BME280;29769;42.178;24.742;2024-03-22T13:46:40;99687.69;;;31.98;14.83
44103;BME280;29769;42.178;24.742;2024-03-22T13:49:26;99688.88;;;32.03;14.79
44103;BME280;29769;42.178;24.742;2024-03-22T13:52:11;99688.78;;;30.71;15.59
44103;BME280;29769;42.178;24.742;2024-03-22T13:54:55;99689.53;;;29.61;16.12
44103;BME280;29769;42.178;24.742;2024-03-22T13:57:40;99681.28;;;29.34;16.49
44103;BME280;29769;42.178;24.742;2024-03-22T14:00:24;99682.03;;;28.46;17.08
44103;BME280;29769;42.178;24.742;2024-03-22T14:03:10;99680.06;;;28.88;16.83
44103;BME280;29769;42.178;24.742;2024-03-22T14:05:54;99680.75;;;27.37;18.41
44103;BME280;29769;42.178;24.742;2024-03-22T14:08:38;99681.47;;;25.62;19.72
44103;BME280;29769;42.178;24.742;2024-03-22T14:11:23;99678.16;;;25.24;20.13
44103;BME280;29769;42.178;24.742;2024-03-22T14:14:08;99673.38;;;26.31;19.11
44103;BME280;29769;42.178;24.742;2024-03-22T14:16:53;99674.00;;;26.23;19.40
44103;BME280;29769;42.178;24.742;2024-03-22T14:19:38;99673.31;;;27.29;18.75
44103;BME280;29769;42.178;24.742;2024-03-22T14:22:22;99668.88;;;27.60;18.28